Time;durP1;ratioP1;P1;durP2;ratioP2;P2;SDS_P1;SDS_P2;PMS_P1;PMS_P2;Temp;Humidity;BMP_temperature;BMP_pressure;BME280_temperature;BME280_humidity;BME280_pressure;Samples;Min_cycle;Max_cycle;Signal;HPM_P1;HPM_P2
2022/03/25 00:01:16;;;;;;;14.13;6.70;;;;;;;;;;4965906;28;20440;-60
2022/03/25 00:03:43;;;;;;;15.07;7.47;;;;;;;;;;4966192;28;20206;-59
2022/03/25 00:06:12;;;;;;;11.93;6.33;;;;;;;;;;4966543;28;20206;-59
2022/03/25 00:08:39;;;;;;;11.07;6.40;;;;;;;;;;4965795;28;20211;-59
2022/03/25 00:11:06;;;;;;;10.17;6.43;;;;;;;;;;4965745;28;20210;-59
2022/03/25 00:13:33;;;;;;;15.77;7.80;;;;;;;;;;4958626;28;20241;-60
2022/03/25 00:16:00;;;;;;;11.83;6.40;;;;;;;;;;4966035;28;20241;-60
2022/03/25 00:18:27;;;;;;;13.43;6.67;;;;;;;;;;4965806;28;20219;-59
2022/03/25 00:20:55;;;;;;;11.73;6.77;;;;;;;;;;4965782;28;20214;-59
2022/03/25 00:23:24;;;;;;;13.63;6.80;;;;;;;;;;4965930;28;20214;-60
2022/03/25 00:25:51;;;;;;;20.73;7.20;;;;;;;;;;4965905;28;20288;-60
2022/03/25 00:28:19;;;;;;;10.30;6.20;;;;;;;;;;4965724;28;20206;-59
2022/03/25 00:30:46;;;;;;;10.87;5.73;;;;;;;;;;4965669;28;20214;-60
2022/03/25 00:33:14;;;;;;;14.03;6.07;;;;;;;;;;4965393;28;20202;-62
2022/03/25 00:35:41;;;;;;;15.20;5.93;;;;;;;;;;4961517;28;20251;-60
2022/03/25 00:38:08;;;;;;;13.07;5.77;;;;;;;;;;4965863;28;20214;-60
2022/03/25 00:40:37;;;;;;;15.00;6.20;;;;;;;;;;4965750;28;20898;-60
2022/03/25 00:43:06;;;;;;;9.17;5.63;;;;;;;;;;4963808;28;20210;-60
2022/03/25 00:45:33;;;;;;;16.53;7.03;;;;;;;;;;4964470;28;20213;-59
2022/03/25 00:48:00;;;;;;;13.47;6.63;;;;;;;;;;4965332;28;20224;-59
2022/03/25 00:50:27;;;;;;;11.10;5.77;;;;;;;;;;4966972;28;20221;-59
2022/03/25 00:52:55;;;;;;;11.43;5.70;;;;;;;;;;4969475;28;20218;-59
2022/03/25 00:55:22;;;;;;;15.37;6.60;;;;;;;;;;4969259;28;20230;-60
2022/03/25 00:57:50;;;;;;;16.90;6.53;;;;;;;;;;4969578;28;20250;-59
2022/03/25 01:00:18;;;;;;;11.60;6.33;;;;;;;;;;4969367;28;20210;-60
2022/03/25 01:02:45;;;;;;;13.73;6.60;;;;;;;;;;4969802;28;20206;-60
2022/03/25 01:05:12;;;;;;;13.07;6.97;;;;;;;;;;4969522;28;20209;-60
2022/03/25 01:07:39;;;;;;;14.33;6.43;;;;;;;;;;4969646;28;20268;-60
2022/03/25 01:10:07;;;;;;;10.23;6.00;;;;;;;;;;4969524;28;21202;-60
2022/03/25 01:12:34;;;;;;;10.93;6.07;;;;;;;;;;4969234;28;20241;-59
2022/03/25 01:15:02;;;;;;;10.10;6.43;;;;;;;;;;4968871;28;20237;-60
2022/03/25 01:17:29;;;;;;;12.10;6.60;;;;;;;;;;4969343;28;20217;-60
2022/03/25 01:19:56;;;;;;;12.50;6.03;;;;;;;;;;4969387;28;20442;-60
2022/03/25 01:22:23;;;;;;;12.17;5.87;;;;;;;;;;4969257;28;20265;-59
2022/03/25 01:24:50;;;;;;;13.37;6.90;;;;;;;;;;4969346;28;20199;-60
2022/03/25 01:27:17;;;;;;;18.47;9.33;;;;;;;;;;4969158;28;20209;-59
2022/03/25 01:29:44;;;;;;;14.83;7.37;;;;;;;;;;4968755;28;20297;-58
2022/03/25 01:32:13;;;;;;;13.77;7.60;;;;;;;;;;4969581;28;20312;-61
2022/03/25 01:34:40;;;;;;;12.70;6.90;;;;;;;;;;4968415;28;20226;-61
2022/03/25 01:37:07;;;;;;;18.33;7.23;;;;;;;;;;4969217;28;20218;-60
2022/03/25 01:39:34;;;;;;;11.23;6.40;;;;;;;;;;4968628;28;20217;-60
2022/03/25 01:42:01;;;;;;;9.63;5.37;;;;;;;;;;4968925;28;20276;-61
2022/03/25 01:44:31;;;;;;;13.07;6.63;;;;;;;;;;4968308;28;20675;-60
2022/03/25 01:46:59;;;;;;;10.50;5.60;;;;;;;;;;4968742;28;20214;-60
2022/03/25 01:49:27;;;;;;;11.53;6.00;;;;;;;;;;4968360;28;20267;-59
2022/03/25 01:51:55;;;;;;;9.77;5.40;;;;;;;;;;4968304;28;20206;-60
2022/03/25 01:54:23;;;;;;;12.60;6.67;;;;;;;;;;4967801;28;20220;-60
2022/03/25 01:56:53;;;;;;;11.77;6.63;;;;;;;;;;4957833;28;20239;-61
2022/03/25 01:59:20;;;;;;;16.03;8.07;;;;;;;;;;4967485;28;20353;-60
2022/03/25 02:01:47;;;;;;;10.33;6.73;;;;;;;;;;4968084;28;20214;-60
2022/03/25 02:04:14;;;;;;;13.60;6.20;;;;;;;;;;4967931;28;20220;-60
2022/03/25 02:06:43;;;;;;;13.40;6.10;;;;;;;;;;4969112;28;20220;-60
2022/03/25 02:09:10;;;;;;;13.57;6.50;;;;;;;;;;4968321;28;20219;-60
2022/03/25 02:11:37;;;;;;;16.67;6.20;;;;;;;;;;4956349;28;20226;-60
2022/03/25 02:14:04;;;;;;;10.97;5.93;;;;;;;;;;4966540;28;20622;-61
2022/03/25 02:16:35;;;;;;;10.97;5.90;;;;;;;;;;4967249;28;20238;-61
2022/03/25 02:19:03;;;;;;;11.47;5.93;;;;;;;;;;4966644;28;20303;-61
2022/03/25 02:21:31;;;;;;;12.67;6.90;;;;;;;;;;4966935;28;20542;-60
2022/03/25 02:23:58;;;;;;;17.67;6.60;;;;;;;;;;4966351;28;20207;-61
2022/03/25 02:26:25;;;;;;;12.30;5.93;;;;;;;;;;4967258;28;20222;-61
2022/03/25 02:28:53;;;;;;;12.40;5.87;;;;;;;;;;4966762;28;20246;-60
2022/03/25 02:31:20;;;;;;;16.10;5.93;;;;;;;;;;4967449;28;20247;-61
2022/03/25 02:33:47;;;;;;;11.87;6.83;;;;;;;;;;4966385;28;20220;-61
2022/03/25 02:36:14;;;;;;;14.60;6.43;;;;;;;;;;4964417;28;20705;-61
2022/03/25 02:38:42;;;;;;;11.07;6.10;;;;;;;;;;4966735;28;20214;-61
2022/03/25 02:41:09;;;;;;;9.80;6.50;;;;;;;;;;4966502;28;20550;-61
2022/03/25 02:43:36;;;;;;;14.23;7.00;;;;;;;;;;4964016;28;20220;-61
2022/03/25 02:46:03;;;;;;;12.00;6.27;;;;;;;;;;4966908;28;20208;-61
2022/03/25 02:48:30;;;;;;;13.07;7.40;;;;;;;;;;4966156;28;20214;-61
2022/03/25 02:50:57;;;;;;;12.83;6.53;;;;;;;;;;4971716;28;20205;-61
2022/03/25 02:53:25;;;;;;;13.33;6.53;;;;;;;;;;4970423;28;20253;-61
2022/03/25 02:55:53;;;;;;;12.13;6.70;;;;;;;;;;4969283;28;20646;-61
2022/03/25 02:58:21;;;;;;;11.70;6.60;;;;;;;;;;4970038;28;20281;-61
2022/03/25 03:00:48;;;;;;;15.23;7.20;;;;;;;;;;4971392;28;20465;-61
2022/03/25 03:03:15;;;;;;;12.80;6.97;;;;;;;;;;4970810;28;20199;-61
2022/03/25 03:05:42;;;;;;;10.60;6.13;;;;;;;;;;4971137;28;20215;-61
2022/03/25 03:08:10;;;;;;;13.73;6.80;;;;;;;;;;4968750;28;20206;-61
2022/03/25 03:10:37;;;;;;;16.63;7.20;;;;;;;;;;4971023;28;20681;-60
2022/03/25 03:13:05;;;;;;;14.50;7.17;;;;;;;;;;4969475;28;20669;-60
2022/03/25 03:15:32;;;;;;;19.40;7.33;;;;;;;;;;4971071;28;20238;-60
2022/03/25 03:17:59;;;;;;;11.60;6.47;;;;;;;;;;4971198;28;20297;-60
2022/03/25 03:20:26;;;;;;;12.10;6.50;;;;;;;;;;4970721;28;20893;-60
2022/03/25 03:22:55;;;;;;;14.53;7.50;;;;;;;;;;4971488;28;20204;-60
2022/03/25 03:25:22;;;;;;;18.40;7.53;;;;;;;;;;4971056;28;20206;-60
2022/03/25 03:27:50;;;;;;;18.77;8.67;;;;;;;;;;4970734;28;20212;-60
2022/03/25 03:30:18;;;;;;;13.37;6.33;;;;;;;;;;4970721;28;20232;-60
2022/03/25 03:32:46;;;;;;;14.53;6.50;;;;;;;;;;4970983;28;20293;-60
2022/03/25 03:35:14;;;;;;;16.07;7.07;;;;;;;;;;4967586;28;20994;-60
2022/03/25 03:37:42;;;;;;;16.43;7.10;;;;;;;;;;4970471;28;20202;-60
2022/03/25 03:40:09;;;;;;;14.03;7.83;;;;;;;;;;4971301;28;20297;-60
2022/03/25 03:42:36;;;;;;;17.07;7.07;;;;;;;;;;4963785;28;20215;-61
2022/03/25 03:45:04;;;;;;;15.13;6.73;;;;;;;;;;4970365;28;20720;-61
2022/03/25 03:47:32;;;;;;;14.30;6.80;;;;;;;;;;4970267;28;20210;-60
2022/03/25 03:49:59;;;;;;;17.37;7.40;;;;;;;;;;4970987;28;20301;-61
2022/03/25 03:52:26;;;;;;;14.47;7.17;;;;;;;;;;4970510;28;20222;-60
2022/03/25 03:54:53;;;;;;;18.17;7.03;;;;;;;;;;4970233;28;20209;-60
2022/03/25 03:57:20;;;;;;;17.87;7.47;;;;;;;;;;4968276;28;20229;-60
2022/03/25 03:59:47;;;;;;;13.53;6.93;;;;;;;;;;4969155;28;20249;-60
2022/03/25 04:02:14;;;;;;;13.10;6.67;;;;;;;;;;4969303;28;20665;-60
2022/03/25 04:04:43;;;;;;;14.67;6.43;;;;;;;;;;4965529;28;20202;-61
2022/03/25 04:07:10;;;;;;;14.03;6.73;;;;;;;;;;4969780;28;20203;-61
2022/03/25 04:09:37;;;;;;;13.40;6.33;;;;;;;;;;4969214;28;20213;-61
2022/03/25 04:12:04;;;;;;;13.23;6.60;;;;;;;;;;4970030;28;20677;-60
2022/03/25 04:14:31;;;;;;;10.10;6.17;;;;;;;;;;4969083;28;20643;-61
2022/03/25 04:16:58;;;;;;;13.33;5.87;;;;;;;;;;4969150;28;20230;-60
2022/03/25 04:19:25;;;;;;;15.90;7.40;;;;;;;;;;4962432;28;20540;-60
2022/03/25 04:21:54;;;;;;;16.53;7.53;;;;;;;;;;4969577;28;20210;-61
2022/03/25 04:24:21;;;;;;;11.00;6.60;;;;;;;;;;4968961;28;20235;-60
2022/03/25 04:26:48;;;;;;;18.50;7.33;;;;;;;;;;4969041;28;20846;-60
2022/03/25 04:29:15;;;;;;;18.20;6.80;;;;;;;;;;4969441;28;20206;-60
2022/03/25 04:31:42;;;;;;;15.60;7.73;;;;;;;;;;4970180;28;20270;-60
2022/03/25 04:34:09;;;;;;;15.80;8.03;;;;;;;;;;4969320;28;20220;-61
2022/03/25 04:36:36;;;;;;;18.50;7.30;;;;;;;;;;4970052;28;20230;-60
2022/03/25 04:39:04;;;;;;;16.37;8.00;;;;;;;;;;4968515;28;20226;-60
2022/03/25 04:41:31;;;;;;;19.30;8.63;;;;;;;;;;4969493;28;20218;-61
2022/03/25 04:43:58;;;;;;;20.40;7.90;;;;;;;;;;4968133;28;20206;-61
2022/03/25 04:46:25;;;;;;;14.27;7.37;;;;;;;;;;4969565;28;20204;-61
2022/03/25 04:48:52;;;;;;;19.57;7.20;;;;;;;;;;4968791;28;20619;-60
2022/03/25 04:51:20;;;;;;;17.20;7.83;;;;;;;;;;4969703;28;20214;-61
2022/03/25 04:53:47;;;;;;;14.07;8.20;;;;;;;;;;4968533;28;20210;-60
2022/03/25 04:56:15;;;;;;;10.67;6.20;;;;;;;;;;4969163;28;20222;-60
2022/03/25 04:58:42;;;;;;;12.23;6.17;;;;;;;;;;4966735;28;20238;-61
2022/03/25 05:01:09;;;;;;;16.47;6.27;;;;;;;;;;4967851;28;20273;-60
2022/03/25 05:03:36;;;;;;;12.20;6.50;;;;;;;;;;4968673;28;20218;-60
2022/03/25 05:06:03;;;;;;;15.03;6.67;;;;;;;;;;4968594;28;20198;-60
2022/03/25 05:08:30;;;;;;;19.03;7.63;;;;;;;;;;4969195;28;20273;-60
2022/03/25 05:10:57;;;;;;;12.20;6.47;;;;;;;;;;4965993;28;20206;-61
2022/03/25 05:13:26;;;;;;;10.70;6.03;;;;;;;;;;4969513;28;20213;-60
2022/03/25 05:15:53;;;;;;;13.63;5.87;;;;;;;;;;4969493;28;20324;-60
2022/03/25 05:18:20;;;;;;;11.90;6.07;;;;;;;;;;4969294;28;20210;-61
2022/03/25 05:20:47;;;;;;;13.40;6.57;;;;;;;;;;4968886;28;20217;-60
2022/03/25 05:23:14;;;;;;;15.40;5.67;;;;;;;;;;4969859;28;20340;-60
2022/03/25 05:25:41;;;;;;;11.27;6.20;;;;;;;;;;4966805;28;20670;-60
2022/03/25 05:28:08;;;;;;;9.50;5.17;;;;;;;;;;4969020;28;20339;-60
2022/03/25 05:30:36;;;;;;;11.07;5.60;;;;;;;;;;4968171;28;20241;-60
2022/03/25 05:33:04;;;;;;;12.57;5.53;;;;;;;;;;4969408;28;20206;-60
2022/03/25 05:35:32;;;;;;;12.80;6.53;;;;;;;;;;4967419;28;21094;-60
2022/03/25 05:37:59;;;;;;;11.80;5.73;;;;;;;;;;4972072;28;20210;-60
2022/03/25 05:40:26;;;;;;;14.90;6.73;;;;;;;;;;4973238;28;20561;-60
2022/03/25 05:42:54;;;;;;;13.80;6.27;;;;;;;;;;4972623;28;20739;-60
2022/03/25 05:45:22;;;;;;;14.30;6.43;;;;;;;;;;4961979;28;20633;-60
2022/03/25 05:47:50;;;;;;;12.13;6.40;;;;;;;;;;4970166;28;20679;-60
2022/03/25 05:50:18;;;;;;;10.53;5.50;;;;;;;;;;4971396;28;20210;-60
2022/03/25 05:52:45;;;;;;;10.60;6.10;;;;;;;;;;4972994;28;20289;-60
2022/03/25 05:55:13;;;;;;;12.33;5.93;;;;;;;;;;4968661;28;20242;-61
2022/03/25 05:57:40;;;;;;;12.83;6.30;;;;;;;;;;4971861;28;20258;-60
2022/03/25 06:00:09;;;;;;;11.67;6.50;;;;;;;;;;4972333;28;20209;-60
2022/03/25 06:02:36;;;;;;;11.37;5.63;;;;;;;;;;4972277;28;20221;-60
2022/03/25 06:05:06;;;;;;;13.60;6.20;;;;;;;;;;4971949;28;20203;-60
2022/03/25 06:07:37;;;;;;;12.27;6.37;;;;;;;;;;4972568;28;20742;-60
2022/03/25 06:10:04;;;;;;;13.47;6.63;;;;;;;;;;4970990;28;20293;-60
2022/03/25 06:12:31;;;;;;;9.73;6.33;;;;;;;;;;4969396;28;20207;-60
2022/03/25 06:15:06;;;;;;;18.47;7.13;;;;;;;;;;4971179;28;20211;-61
2022/03/25 06:17:33;;;;;;;15.37;7.00;;;;;;;;;;4970218;28;20230;-60
2022/03/25 06:20:00;;;;;;;11.63;5.93;;;;;;;;;;4968800;28;20215;-60
2022/03/25 06:22:29;;;;;;;14.87;7.30;;;;;;;;;;4965910;28;20207;-61
2022/03/25 06:24:57;;;;;;;10.97;6.80;;;;;;;;;;4969992;28;20217;-60
2022/03/25 06:27:24;;;;;;;11.77;6.60;;;;;;;;;;4970255;28;20202;-61
2022/03/25 06:29:51;;;;;;;11.80;6.90;;;;;;;;;;4969673;28;20207;-60
2022/03/25 06:32:18;;;;;;;17.10;8.27;;;;;;;;;;4970098;28;20201;-59
2022/03/25 06:34:45;;;;;;;13.80;6.43;;;;;;;;;;4971784;28;20203;-60
2022/03/25 06:37:12;;;;;;;15.43;7.63;;;;;;;;;;4967648;28;20602;-60
2022/03/25 06:39:40;;;;;;;16.07;7.30;;;;;;;;;;4971736;28;20209;-60
2022/03/25 06:42:08;;;;;;;16.60;7.43;;;;;;;;;;4966543;28;20210;-60
2022/03/25 06:44:35;;;;;;;18.70;8.37;;;;;;;;;;4971554;28;20207;-60
2022/03/25 06:47:02;;;;;;;17.07;8.43;;;;;;;;;;4960583;28;20215;-60
2022/03/25 06:49:29;;;;;;;12.83;8.17;;;;;;;;;;4970252;28;20249;-60
2022/03/25 06:51:57;;;;;;;15.87;8.80;;;;;;;;;;4970985;28;20265;-60
2022/03/25 06:54:24;;;;;;;18.40;9.37;;;;;;;;;;4963820;28;20214;-60
2022/03/25 06:56:53;;;;;;;17.73;8.90;;;;;;;;;;4971001;28;20318;-61
2022/03/25 06:59:21;;;;;;;18.93;7.57;;;;;;;;;;4971242;28;20234;-60
2022/03/25 07:01:48;;;;;;;15.80;8.10;;;;;;;;;;4971011;28;20727;-61
2022/03/25 07:04:15;;;;;;;18.77;8.37;;;;;;;;;;4970418;28;20206;-60
2022/03/25 07:06:43;;;;;;;17.40;8.77;;;;;;;;;;4971078;28;20214;-60
2022/03/25 07:09:10;;;;;;;16.17;7.73;;;;;;;;;;4971344;28;20207;-61
2022/03/25 07:11:37;;;;;;;16.17;7.43;;;;;;;;;;4969144;28;20216;-60
2022/03/25 07:14:06;;;;;;;15.00;8.50;;;;;;;;;;4968503;28;20212;-60
2022/03/25 07:16:33;;;;;;;19.90;9.13;;;;;;;;;;4970460;28;20303;-60
2022/03/25 07:19:00;;;;;;;23.13;10.30;;;;;;;;;;4970898;28;20214;-60
2022/03/25 07:21:28;;;;;;;25.53;10.87;;;;;;;;;;4966889;28;20217;-60
2022/03/25 07:23:55;;;;;;;24.23;10.23;;;;;;;;;;4970910;28;20261;-60
2022/03/25 07:26:22;;;;;;;22.87;11.43;;;;;;;;;;4970716;28;20234;-60
2022/03/25 07:28:49;;;;;;;20.53;9.47;;;;;;;;;;4970668;28;20261;-61
2022/03/25 07:31:18;;;;;;;24.27;11.50;;;;;;;;;;4970688;28;20596;-60
2022/03/25 07:33:45;;;;;;;25.23;10.67;;;;;;;;;;4970575;28;20960;-60
2022/03/25 07:36:12;;;;;;;21.07;10.57;;;;;;;;;;4969965;28;20210;-60
2022/03/25 07:38:40;;;;;;;27.37;11.17;;;;;;;;;;4961847;28;20211;-60
2022/03/25 07:41:07;;;;;;;24.60;10.77;;;;;;;;;;4968810;28;20207;-60
2022/03/25 07:43:34;;;;;;;26.90;11.60;;;;;;;;;;4967720;28;20206;-60
2022/03/25 07:46:01;;;;;;;20.90;10.73;;;;;;;;;;4968891;28;20723;-60
2022/03/25 07:48:29;;;;;;;25.30;10.83;;;;;;;;;;4970518;28;20206;-60
2022/03/25 07:50:56;;;;;;;22.80;11.33;;;;;;;;;;4970802;28;20218;-60
2022/03/25 07:53:23;;;;;;;26.80;11.60;;;;;;;;;;4970562;28;20585;-60
2022/03/25 07:55:51;;;;;;;21.13;10.77;;;;;;;;;;4969564;28;20206;-60
2022/03/25 07:58:20;;;;;;;23.70;10.80;;;;;;;;;;4960295;28;20367;-60
2022/03/25 08:00:47;;;;;;;21.70;10.13;;;;;;;;;;4968120;28;20210;-60
2022/03/25 08:03:14;;;;;;;22.17;10.57;;;;;;;;;;4970314;28;20210;-60
2022/03/25 08:05:42;;;;;;;26.43;11.77;;;;;;;;;;4958551;28;20225;-60
2022/03/25 08:08:10;;;;;;;22.27;10.43;;;;;;;;;;4967514;28;20233;-60
2022/03/25 08:10:39;;;;;;;25.30;12.27;;;;;;;;;;4970120;28;20222;-60
2022/03/25 08:13:07;;;;;;;21.87;10.73;;;;;;;;;;4969520;28;20764;-60
2022/03/25 08:15:34;;;;;;;28.13;11.40;;;;;;;;;;4969640;28;20206;-60
2022/03/25 08:18:03;;;;;;;22.53;11.63;;;;;;;;;;4969641;28;20229;-60
2022/03/25 08:20:33;;;;;;;26.23;11.37;;;;;;;;;;4966549;28;20293;-61
2022/03/25 08:23:02;;;;;;;26.40;11.40;;;;;;;;;;4969774;28;20276;-61
2022/03/25 08:28:15;;;;;;;24.90;11.37;;;;;;;;;;4964902;28;20591;-59
2022/03/25 08:30:42;;;;;;;25.67;11.80;;;;;;;;;;4969900;28;20210;-60
2022/03/25 08:33:09;;;;;;;21.33;10.80;;;;;;;;;;4970049;28;20214;-59
2022/03/25 08:35:37;;;;;;;27.53;12.00;;;;;;;;;;4969687;28;20292;-59
2022/03/25 08:38:05;;;;;;;28.63;11.07;;;;;;;;;;4969165;28;20257;-59
2022/03/25 08:40:34;;;;;;;22.17;10.90;;;;;;;;;;4969468;28;20214;-59
2022/03/25 08:43:02;;;;;;;27.27;11.77;;;;;;;;;;4968050;28;20219;-59
2022/03/25 08:45:29;;;;;;;23.23;11.57;;;;;;;;;;4968491;28;20604;-60
2022/03/25 08:47:56;;;;;;;29.63;13.27;;;;;;;;;;4961812;28;20214;-59
2022/03/25 08:50:24;;;;;;;22.17;11.90;;;;;;;;;;4969017;28;20206;-60
2022/03/25 08:52:52;;;;;;;26.07;12.40;;;;;;;;;;4968848;28;20210;-60
2022/03/25 08:55:21;;;;;;;28.20;12.50;;;;;;;;;;4967096;28;20210;-60
2022/03/25 08:57:49;;;;;;;24.90;12.07;;;;;;;;;;4967858;28;20256;-62
2022/03/25 09:00:17;;;;;;;24.10;11.80;;;;;;;;;;4969029;28;20202;-60
2022/03/25 09:02:45;;;;;;;27.70;13.47;;;;;;;;;;4965301;28;20225;-60
2022/03/25 09:05:12;;;;;;;25.30;12.13;;;;;;;;;;4962264;28;20213;-59
2022/03/25 09:07:40;;;;;;;23.73;12.23;;;;;;;;;;4967332;28;20691;-63
2022/03/25 09:10:08;;;;;;;26.03;11.33;;;;;;;;;;4968706;28;20549;-59
2022/03/25 09:12:36;;;;;;;24.43;12.57;;;;;;;;;;4970434;28;20282;-59
2022/03/25 09:15:04;;;;;;;23.67;12.27;;;;;;;;;;4972594;28;20210;-59
2022/03/25 09:17:31;;;;;;;29.93;14.07;;;;;;;;;;4970855;28;20843;-60
2022/03/25 09:19:58;;;;;;;22.20;13.07;;;;;;;;;;4968609;28;20238;-59
2022/03/25 09:22:25;;;;;;;29.42;13.43;;;;;;;;;;4965030;28;20203;-61
2022/03/25 09:24:52;;;;;;;27.42;11.55;;;;;;;;;;4961458;28;20261;-61
2022/03/25 09:27:19;;;;;;;25.23;12.07;;;;;;;;;;4959911;28;20203;-60
2022/03/25 09:29:48;;;;;;;26.50;12.60;;;;;;;;;;4960992;28;20581;-61
2022/03/25 09:32:15;;;;;;;22.55;11.95;;;;;;;;;;4971830;28;20210;-61
2022/03/25 09:37:27;;;;;;;30.23;12.43;;;;;;;;;;4972332;28;20381;-60
2022/03/25 09:39:54;;;;;;;26.98;12.95;;;;;;;;;;4971964;28;20206;-61
2022/03/25 09:42:21;;;;;;;22.67;12.13;;;;;;;;;;4971978;28;20577;-60
2022/03/25 09:44:49;;;;;;;21.42;11.82;;;;;;;;;;4971449;28;20210;-60
2022/03/25 09:47:18;;;;;;;25.75;12.65;;;;;;;;;;4956822;28;20318;-60
2022/03/25 09:49:45;;;;;;;28.88;12.88;;;;;;;;;;4971474;28;20230;-60
2022/03/25 09:52:12;;;;;;;23.73;13.48;;;;;;;;;;4972797;28;20938;-60
2022/03/25 09:54:39;;;;;;;24.23;13.18;;;;;;;;;;4971970;28;20587;-60
2022/03/25 09:57:06;;;;;;;28.60;13.43;;;;;;;;;;4972062;28;20230;-60
2022/03/25 09:59:33;;;;;;;24.85;12.95;;;;;;;;;;4972058;28;20242;-60
2022/03/25 10:02:01;;;;;;;24.50;13.68;;;;;;;;;;4971112;28;20214;-59
2022/03/25 10:04:42;;;;;;;21.95;11.95;;;;;;;;;;4971651;28;20233;-60
2022/03/25 10:07:19;;;;;;;23.80;13.20;;;;;;;;;;4972046;28;20863;-59
2022/03/25 10:09:46;;;;;;;23.98;13.18;;;;;;;;;;4971693;28;20397;-59
2022/03/25 10:12:20;;;;;;;24.35;13.52;;;;;;;;;;4970858;28;20213;-59
2022/03/25 10:14:49;;;;;;;26.05;13.27;;;;;;;;;;4965090;28;20209;-60
2022/03/25 10:17:17;;;;;;;29.00;14.20;;;;;;;;;;4972068;28;20747;-60
2022/03/25 10:19:49;;;;;;;22.65;12.50;;;;;;;;;;4967114;28;20298;-59
2022/03/25 10:22:17;;;;;;;28.27;14.25;;;;;;;;;;4972281;28;20210;-60
2022/03/25 10:24:45;;;;;;;27.58;13.68;;;;;;;;;;4971013;28;20261;-60
2022/03/25 10:27:13;;;;;;;23.92;12.60;;;;;;;;;;4971427;28;20222;-59
2022/03/25 10:29:41;;;;;;;24.17;12.80;;;;;;;;;;4965956;28;20821;-59
2022/03/25 10:32:09;;;;;;;28.85;13.00;;;;;;;;;;4957943;28;20199;-59
2022/03/25 10:34:38;;;;;;;26.85;13.10;;;;;;;;;;4971201;28;20218;-60
2022/03/25 10:37:06;;;;;;;25.25;13.90;;;;;;;;;;4971305;28;20669;-60
2022/03/25 10:39:33;;;;;;;23.67;12.65;;;;;;;;;;4970193;28;20229;-60
2022/03/25 10:42:01;;;;;;;28.15;14.07;;;;;;;;;;4967223;28;20285;-60
2022/03/25 10:44:35;;;;;;;25.35;12.20;;;;;;;;;;4971392;28;20588;-60
2022/03/25 10:47:20;;;;;;;25.23;13.75;;;;;;;;;;4970987;28;20214;-59
2022/03/25 10:49:49;;;;;;;25.75;14.32;;;;;;;;;;4970905;28;20309;-60
2022/03/25 10:52:21;;;;;;;28.23;13.07;;;;;;;;;;4971721;28;20714;-60
2022/03/25 10:54:48;;;;;;;26.77;13.63;;;;;;;;;;4971542;28;20257;-60
2022/03/25 10:57:17;;;;;;;22.88;13.07;;;;;;;;;;4969183;28;20222;-62
2022/03/25 10:59:44;;;;;;;25.23;13.05;;;;;;;;;;4971194;28;20332;-59
2022/03/25 11:02:11;;;;;;;28.98;13.30;;;;;;;;;;4967496;28;20293;-59
2022/03/25 11:04:41;;;;;;;28.52;13.85;;;;;;;;;;4971406;28;20297;-59
2022/03/25 11:07:10;;;;;;;30.77;15.40;;;;;;;;;;4971105;28;20206;-60
2022/03/25 11:09:37;;;;;;;17.92;10.85;;;;;;;;;;4963311;28;20314;-59
2022/03/25 11:12:05;;;;;;;27.80;12.82;;;;;;;;;;4971173;28;20237;-59
2022/03/25 11:14:32;;;;;;;26.00;14.23;;;;;;;;;;4962984;28;20226;-59
2022/03/25 11:17:01;;;;;;;27.52;14.10;;;;;;;;;;4970781;28;20211;-59
2022/03/25 11:19:29;;;;;;;26.50;14.10;;;;;;;;;;4969007;28;20234;-59
2022/03/25 11:21:57;;;;;;;20.02;10.15;;;;;;;;;;4971110;28;20771;-59
2022/03/25 11:24:30;;;;;;;25.77;13.10;;;;;;;;;;4971336;28;20206;-59
2022/03/25 11:26:58;;;;;;;26.00;13.23;;;;;;;;;;4970681;28;20301;-59
2022/03/25 11:29:27;;;;;;;25.15;13.68;;;;;;;;;;4969201;28;20563;-59
2022/03/25 11:32:04;;;;;;;25.15;12.82;;;;;;;;;;4959548;28;20297;-59
2022/03/25 11:34:31;;;;;;;23.98;14.23;;;;;;;;;;4966786;28;20210;-60
2022/03/25 11:37:13;;;;;;;26.40;13.13;;;;;;;;;;4963894;28;20608;-61
2022/03/25 11:39:42;;;;;;;25.00;13.18;;;;;;;;;;4958280;28;20222;-60
2022/03/25 11:42:29;;;;;;;29.58;14.15;;;;;;;;;;4964030;28;20207;-61
2022/03/25 11:45:11;;;;;;;24.60;14.02;;;;;;;;;;4947773;28;20682;-61
2022/03/25 11:47:38;;;;;;;25.35;14.25;;;;;;;;;;4949518;28;20221;-61
2022/03/25 11:50:20;;;;;;;21.95;12.07;;;;;;;;;;4948683;28;20565;-61
2022/03/25 11:52:47;;;;;;;25.30;13.45;;;;;;;;;;4965862;28;20220;-61
2022/03/25 11:55:15;;;;;;;25.30;13.48;;;;;;;;;;4966383;28;20225;-61
2022/03/25 11:57:42;;;;;;;24.85;13.60;;;;;;;;;;4961557;28;20248;-60
2022/03/25 12:00:11;;;;;;;28.30;14.90;;;;;;;;;;4960531;28;20563;-61
2022/03/25 12:02:40;;;;;;;28.80;14.60;;;;;;;;;;4967633;28;20218;-61
2022/03/25 12:05:37;;;;;;;27.92;14.48;;;;;;;;;;4967085;28;20224;-61
2022/03/25 12:08:23;;;;;;;21.98;12.13;;;;;;;;;;4967019;28;20213;-61
2022/03/25 12:10:52;;;;;;;31.83;14.55;;;;;;;;;;4967073;28;20216;-61
2022/03/25 12:13:20;;;;;;;29.77;13.98;;;;;;;;;;4963098;28;20211;-61
2022/03/25 12:15:49;;;;;;;27.40;14.40;;;;;;;;;;4954967;28;20774;-61
2022/03/25 12:18:35;;;;;;;29.00;15.02;;;;;;;;;;4947155;29;20709;-62
2022/03/25 12:21:02;;;;;;;24.27;13.85;;;;;;;;;;4965988;28;20244;-61
2022/03/25 12:23:29;;;;;;;24.55;12.63;;;;;;;;;;4946709;28;20222;-62
2022/03/25 12:25:57;;;;;;;25.67;13.57;;;;;;;;;;4947008;28;20609;-61
2022/03/25 12:28:24;;;;;;;24.75;13.45;;;;;;;;;;4947341;28;20210;-61
2022/03/25 12:30:52;;;;;;;28.85;14.77;;;;;;;;;;4946477;28;20262;-61
2022/03/25 12:33:20;;;;;;;24.10;13.02;;;;;;;;;;4955225;28;20280;-61
2022/03/25 12:35:48;;;;;;;24.92;11.52;;;;;;;;;;4966065;28;20978;-61
2022/03/25 12:38:25;;;;;;;22.55;8.40;;;;;;;;;;4966095;28;20712;-61
2022/03/25 12:40:53;;;;;;;27.90;13.65;;;;;;;;;;4962202;28;20240;-61
2022/03/25 12:43:29;;;;;;;26.55;14.55;;;;;;;;;;4964140;28;20215;-64
2022/03/25 12:45:57;;;;;;;24.45;13.65;;;;;;;;;;4965254;28;20214;-61
2022/03/25 12:48:24;;;;;;;25.20;13.60;;;;;;;;;;4948450;28;20298;-61
2022/03/25 12:50:52;;;;;;;24.60;13.35;;;;;;;;;;4946664;28;20241;-61
2022/03/25 12:53:22;;;;;;;26.85;14.20;;;;;;;;;;4949276;28;20223;-61
2022/03/25 12:55:49;;;;;;;23.63;12.18;;;;;;;;;;4966396;28;20214;-62
2022/03/25 12:58:16;;;;;;;24.70;13.30;;;;;;;;;;4965640;28;20238;-62
2022/03/25 13:00:45;;;;;;;28.50;12.95;;;;;;;;;;4966141;28;20214;-62
2022/03/25 13:03:13;;;;;;;28.77;13.80;;;;;;;;;;4965152;28;20214;-62
2022/03/25 13:05:40;;;;;;;23.48;12.57;;;;;;;;;;4946936;29;20273;-60
2022/03/25 13:08:08;;;;;;;27.40;13.02;;;;;;;;;;4946979;29;20289;-62
2022/03/25 13:10:36;;;;;;;23.50;12.35;;;;;;;;;;4956521;28;20744;-61
2022/03/25 13:13:04;;;;;;;23.38;12.98;;;;;;;;;;4960075;28;20495;-60
2022/03/25 13:15:32;;;;;;;24.73;12.55;;;;;;;;;;4965203;28;20206;-61
2022/03/25 13:18:02;;;;;;;25.98;12.45;;;;;;;;;;4965759;28;20269;-62
2022/03/25 13:20:30;;;;;;;24.67;14.05;;;;;;;;;;4965609;28;20678;-61
2022/03/25 13:23:00;;;;;;;28.42;13.77;;;;;;;;;;4965816;28;20245;-61
2022/03/25 13:25:28;;;;;;;25.90;12.70;;;;;;;;;;4965078;28;20214;-61
2022/03/25 13:27:55;;;;;;;21.58;11.88;;;;;;;;;;4965808;28;20214;-64
2022/03/25 13:30:23;;;;;;;22.58;11.75;;;;;;;;;;4956241;28;20210;-61
2022/03/25 13:32:57;;;;;;;21.88;11.00;;;;;;;;;;4956780;28;20689;-61
2022/03/25 13:35:31;;;;;;;20.58;12.15;;;;;;;;;;4965004;28;20219;-61
2022/03/25 13:38:01;;;;;;;23.40;13.43;;;;;;;;;;4965447;28;20218;-62
2022/03/25 13:40:28;;;;;;;24.95;13.07;;;;;;;;;;4958770;28;20289;-62
2022/03/25 13:42:56;;;;;;;24.20;12.75;;;;;;;;;;4957215;28;20210;-63
2022/03/25 13:45:23;;;;;;;26.63;13.18;;;;;;;;;;4964945;28;20244;-62
2022/03/25 13:48:01;;;;;;;28.92;13.85;;;;;;;;;;4963352;28;20697;-64
2022/03/25 13:50:30;;;;;;;22.65;11.48;;;;;;;;;;4965316;28;20206;-63
2022/03/25 13:53:00;;;;;;;21.63;12.15;;;;;;;;;;4964863;28;20775;-62
2022/03/25 13:55:36;;;;;;;23.23;11.90;;;;;;;;;;4964921;28;20242;-61
2022/03/25 13:58:03;;;;;;;12.68;7.55;;;;;;;;;;4966179;28;20320;-60
2022/03/25 14:00:32;;;;;;;20.83;12.13;;;;;;;;;;4968061;28;20214;-60
2022/03/25 14:02:59;;;;;;;26.88;13.07;;;;;;;;;;4966444;28;20214;-60
2022/03/25 14:05:27;;;;;;;17.20;8.30;;;;;;;;;;4949418;29;20739;-60
2022/03/25 14:07:57;;;;;;;20.00;10.15;;;;;;;;;;4951362;28;20243;-61
2022/03/25 14:10:25;;;;;;;21.92;11.45;;;;;;;;;;4968752;28;20266;-60
2022/03/25 14:12:59;;;;;;;23.05;12.73;;;;;;;;;;4968297;28;20226;-60
2022/03/25 14:15:27;;;;;;;24.40;12.55;;;;;;;;;;4969009;28;20862;-61
2022/03/25 14:17:55;;;;;;;19.70;12.05;;;;;;;;;;4968709;28;20213;-61
2022/03/25 14:20:22;;;;;;;24.67;12.48;;;;;;;;;;4969097;28;20603;-61
2022/03/25 14:22:51;;;;;;;20.42;12.63;;;;;;;;;;4968079;28;20224;-63
2022/03/25 14:25:20;;;;;;;13.30;7.32;;;;;;;;;;4968334;28;20265;-60
2022/03/25 14:27:48;;;;;;;24.92;14.07;;;;;;;;;;4968036;28;20516;-61
2022/03/25 14:30:15;;;;;;;22.60;12.13;;;;;;;;;;4968584;28;20221;-60
2022/03/25 14:32:42;;;;;;;20.02;10.48;;;;;;;;;;4967997;28;20214;-62
2022/03/25 14:35:10;;;;;;;21.90;11.40;;;;;;;;;;4964044;28;20210;-59